PIA017 OPLA-OPSD
Flight info
| Callsign | PIA017 |
|---|---|
| Flight time | N/A |
| Altitude | 38000 |
| Route | AKBER DCT MATIN DCT ISDUR DCT RN/N0454F390 DCT KAGLO J186 KAPMI J154 BUNGI DCT DELDA DCT BIREB DCT SD |
| Aircraft | A20N/M-SDE2E3FGHIRWXY/LB1 |
Departure
| Time | 2026-04-25 16:44 |
|---|---|
| Airport | Allama Iqbal International Airport (OPLA) |
Arrival
| Time | N/A |
|---|---|
| Airport | Skardu International Airport (OPSD) |
| Time | Latitude | Longitude | Altitude | Speed | Heading |
|---|---|---|---|---|---|
| 2026-04-25 16:03 | 31.52040 | 74.40957 | 723 ft | 0 kts | 90° |
| 2026-04-25 16:30 | 31.52040 | 74.40949 | 722 ft | 1 kts | 90° |
| 2026-04-25 16:31 | 31.52040 | 74.40940 | 722 ft | 1 kts | 90° |
| 2026-04-25 16:31 | 31.52040 | 74.40930 | 722 ft | 1 kts | 90° |
| 2026-04-25 16:31 | 31.52040 | 74.40921 | 722 ft | 1 kts | 90° |
| 2026-04-25 16:31 | 31.52040 | 74.40910 | 722 ft | 1 kts | 90° |
| 2026-04-25 16:32 | 31.52040 | 74.40901 | 722 ft | 1 kts | 85° |
| 2026-04-25 16:32 | 31.52039 | 74.40891 | 722 ft | 1 kts | 77° |
| 2026-04-25 16:32 | 31.52038 | 74.40885 | 722 ft | 0 kts | 72° |
| 2026-04-25 16:32 | 31.52035 | 74.40876 | 722 ft | 1 kts | 68° |
| 2026-04-25 16:33 | 31.52032 | 74.40868 | 723 ft | 1 kts | 67° |
| 2026-04-25 16:33 | 31.52029 | 74.40858 | 723 ft | 1 kts | 58° |
| 2026-04-25 16:33 | 31.52025 | 74.40851 | 723 ft | 1 kts | 51° |
| 2026-04-25 16:33 | 31.52019 | 74.40843 | 725 ft | 1 kts | 44° |
| 2026-04-25 16:34 | 31.52014 | 74.40837 | 722 ft | 1 kts | 28° |
| 2026-04-25 16:34 | 31.52011 | 74.40835 | 722 ft | 0 kts | 22° |
| 2026-04-25 16:36 | 31.52020 | 74.40834 | 723 ft | 2 kts | 359° |
| 2026-04-25 16:36 | 31.52049 | 74.40835 | 723 ft | 6 kts | 1° |
| 2026-04-25 16:37 | 31.52109 | 74.40835 | 726 ft | 12 kts | 0° |
| 2026-04-25 16:37 | 31.52213 | 74.40836 | 723 ft | 17 kts | 0° |
| 2026-04-25 16:37 | 31.52340 | 74.40839 | 725 ft | 19 kts | 4° |
| 2026-04-25 16:37 | 31.52407 | 74.40782 | 724 ft | 12 kts | 282° |
| 2026-04-25 16:38 | 31.52388 | 74.40683 | 725 ft | 14 kts | 218° |
| 2026-04-25 16:38 | 31.52293 | 74.40671 | 723 ft | 16 kts | 179° |
| 2026-04-25 16:38 | 31.52174 | 74.40669 | 723 ft | 18 kts | 185° |
| 2026-04-25 16:38 | 31.52039 | 74.40665 | 723 ft | 21 kts | 181° |
| 2026-04-25 16:39 | 31.51886 | 74.40664 | 725 ft | 23 kts | 180° |
| 2026-04-25 16:39 | 31.51727 | 74.40659 | 723 ft | 21 kts | 186° |
| 2026-04-25 16:39 | 31.51627 | 74.40656 | 722 ft | 23 kts | 179° |
| 2026-04-25 16:39 | 31.51420 | 74.40656 | 722 ft | 21 kts | 180° |
| 2026-04-25 16:40 | 31.51324 | 74.40656 | 723 ft | 22 kts | 180° |
| 2026-04-25 16:40 | 31.51172 | 74.40652 | 721 ft | 22 kts | 181° |
| 2026-04-25 16:40 | 31.51029 | 74.40650 | 720 ft | 16 kts | 180° |
| 2026-04-25 16:40 | 31.50887 | 74.40649 | 721 ft | 16 kts | 181° |
| 2026-04-25 16:41 | 31.50841 | 74.40643 | 721 ft | 5 kts | 187° |
| 2026-04-25 16:41 | 31.50812 | 74.40638 | 720 ft | 8 kts | 187° |
| 2026-04-25 16:41 | 31.50679 | 74.40516 | 722 ft | 14 kts | 237° |
| 2026-04-25 16:42 | 31.50700 | 74.40431 | 719 ft | 12 kts | 343° |
| 2026-04-25 16:42 | 31.50770 | 74.40433 | 719 ft | 8 kts | 1° |
| 2026-04-25 16:42 | 31.50795 | 74.40434 | 721 ft | 0 kts | 360° |
| 2026-04-25 16:44 | 31.50871 | 74.40433 | 720 ft | 41 kts | 359° |
| 2026-04-25 16:44 | 31.51403 | 74.40445 | 725 ft | 108 kts | 0° |
| 2026-04-25 16:44 | 31.52334 | 74.40461 | 724 ft | 157 kts | 1° |
| 2026-04-25 16:44 | 31.53406 | 74.40479 | 1368 ft | 139 kts | 356° |
| 2026-04-25 16:45 | 31.54411 | 74.40472 | 1746 ft | 155 kts | 354° |
| 2026-04-25 16:45 | 31.55421 | 74.40473 | 2339 ft | 143 kts | 354° |
| 2026-04-25 16:45 | 31.56448 | 74.40465 | 2796 ft | 146 kts | 352° |
| 2026-04-25 16:45 | 31.57405 | 74.40375 | 3455 ft | 140 kts | 346° |
| 2026-04-25 16:46 | 31.58458 | 74.40212 | 3808 ft | 163 kts | 346° |
| 2026-04-25 16:46 | 31.59433 | 74.39521 | 4270 ft | 171 kts | 302° |
| 2026-04-25 16:46 | 31.59980 | 74.38210 | 4754 ft | 189 kts | 289° |
| 2026-04-25 16:46 | 31.60365 | 74.37247 | 4973 ft | 207 kts | 306° |
| 2026-04-25 16:47 | 31.61762 | 74.35505 | 5626 ft | 236 kts | 314° |
| 2026-04-25 16:47 | 31.63021 | 74.34114 | 6109 ft | 260 kts | 315° |
| 2026-04-25 16:47 | 31.64389 | 74.32620 | 6767 ft | 272 kts | 315° |
| 2026-04-25 16:47 | 31.65788 | 74.31089 | 7630 ft | 277 kts | 314° |
| 2026-04-25 16:48 | 31.67185 | 74.29538 | 8615 ft | 277 kts | 314° |
| 2026-04-25 16:48 | 31.68591 | 74.27962 | 9586 ft | 280 kts | 313° |
| 2026-04-25 16:48 | 31.70014 | 74.26359 | 10352 ft | 291 kts | 314° |
| 2026-04-25 16:48 | 31.71527 | 74.24648 | 10719 ft | 313 kts | 314° |
| 2026-04-25 16:49 | 31.73149 | 74.22814 | 11142 ft | 331 kts | 314° |
| 2026-04-25 16:49 | 31.74822 | 74.20926 | 12009 ft | 334 kts | 314° |
| 2026-04-25 16:49 | 31.76499 | 74.19036 | 12934 ft | 336 kts | 314° |
| 2026-04-25 16:49 | 31.78194 | 74.17124 | 13789 ft | 339 kts | 314° |
| 2026-04-25 16:50 | 31.79903 | 74.15194 | 14548 ft | 342 kts | 314° |
| 2026-04-25 16:50 | 31.81629 | 74.13244 | 15308 ft | 346 kts | 314° |
| 2026-04-25 16:50 | 31.83349 | 74.11298 | 16052 ft | 349 kts | 314° |
| 2026-04-25 16:50 | 31.85167 | 74.09330 | 16788 ft | 354 kts | 318° |
| 2026-04-25 16:51 | 31.87114 | 74.07526 | 17473 ft | 359 kts | 319° |
| 2026-04-25 16:51 | 31.89071 | 74.05715 | 17757 ft | 365 kts | 319° |
| 2026-04-25 16:51 | 31.91087 | 74.03842 | 17813 ft | 364 kts | 319° |
| 2026-04-25 16:51 | 31.92401 | 74.02624 | 17818 ft | 364 kts | 320° |
| 2026-04-25 16:52 | 31.95260 | 74.00484 | 18142 ft | 372 kts | 329° |
| 2026-04-25 16:52 | 31.97599 | 73.99163 | 18897 ft | 371 kts | 331° |
| 2026-04-25 16:52 | 31.99925 | 73.97837 | 19599 ft | 372 kts | 330° |
| 2026-04-25 16:52 | 32.02257 | 73.96493 | 20246 ft | 375 kts | 330° |
| 2026-04-25 16:53 | 32.06846 | 73.93853 | 21526 ft | 379 kts | 330° |
| 2026-04-25 16:53 | 32.09220 | 73.92492 | 22179 ft | 381 kts | 330° |
| 2026-04-25 16:53 | 32.11614 | 73.91120 | 22825 ft | 384 kts | 330° |
| 2026-04-25 16:54 | 32.14034 | 73.89732 | 23357 ft | 390 kts | 330° |
| 2026-04-25 16:54 | 32.16485 | 73.88326 | 23887 ft | 392 kts | 330° |
| 2026-04-25 16:54 | 32.18924 | 73.86928 | 24401 ft | 394 kts | 330° |
| 2026-04-25 16:54 | 32.21422 | 73.85495 | 24928 ft | 397 kts | 330° |
| 2026-04-25 16:55 | 32.23924 | 73.84059 | 25432 ft | 400 kts | 329° |
| 2026-04-25 16:55 | 32.26433 | 73.82618 | 25931 ft | 403 kts | 329° |
| 2026-04-25 16:55 | 32.28968 | 73.81160 | 26427 ft | 406 kts | 329° |
| 2026-04-25 16:55 | 32.31485 | 73.79712 | 26903 ft | 409 kts | 329° |
| 2026-04-25 16:56 | 32.34048 | 73.78236 | 27369 ft | 412 kts | 329° |
| 2026-04-25 16:56 | 32.36630 | 73.76748 | 27844 ft | 415 kts | 329° |
| 2026-04-25 16:56 | 32.39243 | 73.75241 | 28236 ft | 419 kts | 329° |
| 2026-04-25 16:56 | 32.41868 | 73.73727 | 28687 ft | 421 kts | 329° |
| 2026-04-25 16:57 | 32.44511 | 73.72201 | 29114 ft | 423 kts | 328° |
| 2026-04-25 16:57 | 32.46301 | 73.71167 | 29383 ft | 425 kts | 328° |
| 2026-04-25 16:57 | 32.49842 | 73.69121 | 29917 ft | 428 kts | 328° |
| 2026-04-25 16:57 | 32.52531 | 73.67565 | 30278 ft | 431 kts | 328° |
| 2026-04-25 16:58 | 32.55222 | 73.66007 | 30646 ft | 432 kts | 328° |
| 2026-04-25 16:58 | 32.57933 | 73.64436 | 31020 ft | 434 kts | 328° |
| 2026-04-25 16:58 | 32.60636 | 73.62872 | 31581 ft | 431 kts | 328° |
| 2026-04-25 16:58 | 32.63318 | 73.61316 | 32108 ft | 428 kts | 328° |
| 2026-04-25 16:59 | 32.66003 | 73.59759 | 32584 ft | 427 kts | 328° |
| 2026-04-25 16:59 | 32.68663 | 73.58213 | 33038 ft | 426 kts | 328° |
| 2026-04-25 16:59 | 32.71318 | 73.56669 | 33482 ft | 425 kts | 328° |
| 2026-04-25 16:59 | 32.73971 | 73.55125 | 33916 ft | 423 kts | 328° |
| 2026-04-25 17:00 | 32.76613 | 73.53587 | 34267 ft | 423 kts | 328° |
| 2026-04-25 17:00 | 32.79254 | 73.52047 | 34617 ft | 422 kts | 328° |
| 2026-04-25 17:00 | 32.81758 | 73.50586 | 34872 ft | 423 kts | 328° |
| 2026-04-25 17:00 | 32.84402 | 73.49044 | 35205 ft | 423 kts | 328° |
| 2026-04-25 17:01 | 32.87039 | 73.47504 | 35508 ft | 423 kts | 328° |
| 2026-04-25 17:01 | 32.89681 | 73.45961 | 35816 ft | 422 kts | 328° |
| 2026-04-25 17:01 | 32.92322 | 73.44417 | 36125 ft | 422 kts | 328° |
| 2026-04-25 17:01 | 32.94950 | 73.42880 | 36406 ft | 422 kts | 328° |
| 2026-04-25 17:02 | 32.97569 | 73.41347 | 36680 ft | 422 kts | 328° |
| 2026-04-25 17:02 | 33.00221 | 73.39793 | 36851 ft | 421 kts | 328° |
| 2026-04-25 17:02 | 33.02845 | 73.38254 | 36873 ft | 420 kts | 328° |
| 2026-04-25 17:03 | 33.08088 | 73.35177 | 36889 ft | 420 kts | 328° |
| 2026-04-25 17:03 | 33.13338 | 73.32093 | 36887 ft | 420 kts | 328° |
| 2026-04-25 17:04 | 33.18583 | 73.29007 | 36892 ft | 419 kts | 328° |
| 2026-04-25 17:04 | 33.23789 | 73.25943 | 36892 ft | 416 kts | 328° |
| 2026-04-25 17:05 | 33.28949 | 73.22899 | 36897 ft | 416 kts | 328° |
| 2026-04-25 17:05 | 33.36756 | 73.18311 | 36896 ft | 418 kts | 330° |
| 2026-04-25 17:06 | 33.42288 | 73.15976 | 36908 ft | 425 kts | 339° |
| 2026-04-25 17:06 | 33.48151 | 73.14704 | 36920 ft | 431 kts | 346° |
| 2026-04-25 17:07 | 33.54077 | 73.13705 | 36918 ft | 430 kts | 345° |
| 2026-04-25 17:07 | 33.60114 | 73.13317 | 36940 ft | 440 kts | 356° |
| 2026-04-25 17:08 | 33.66240 | 73.14301 | 36938 ft | 449 kts | 6° |
| 2026-04-25 17:08 | 33.72278 | 73.16110 | 36949 ft | 451 kts | 7° |
| 2026-04-25 17:09 | 33.78427 | 73.17938 | 36962 ft | 451 kts | 7° |
| 2026-04-25 17:09 | 33.84535 | 73.19771 | 36959 ft | 452 kts | 7° |
| 2026-04-25 17:10 | 33.90605 | 73.21597 | 36972 ft | 449 kts | 7° |
| 2026-04-25 17:10 | 33.96645 | 73.23417 | 37011 ft | 451 kts | 6° |
| 2026-04-25 17:11 | 34.02714 | 73.25266 | 37014 ft | 449 kts | 7° |
| 2026-04-25 17:11 | 34.08780 | 73.27085 | 37015 ft | 450 kts | 7° |
| 2026-04-25 17:12 | 34.14489 | 73.28807 | 37013 ft | 448 kts | 6° |
| 2026-04-25 17:12 | 34.20528 | 73.30623 | 37035 ft | 452 kts | 7° |
| 2026-04-25 17:13 | 34.24629 | 73.31854 | 37018 ft | 455 kts | 7° |
| 2026-04-25 17:13 | 34.32758 | 73.34338 | 37060 ft | 451 kts | 7° |
| 2026-04-25 17:14 | 34.38788 | 73.36197 | 37054 ft | 452 kts | 7° |
| 2026-04-25 17:14 | 34.44955 | 73.38084 | 37108 ft | 451 kts | 7° |
| 2026-04-25 17:15 | 34.51055 | 73.39924 | 37141 ft | 451 kts | 7° |
| 2026-04-25 17:15 | 34.57114 | 73.41773 | 37139 ft | 452 kts | 7° |
| 2026-04-25 17:16 | 34.63239 | 73.43647 | 37176 ft | 452 kts | 7° |
| 2026-04-25 17:16 | 34.69318 | 73.45520 | 37185 ft | 451 kts | 7° |
| 2026-04-25 17:17 | 34.72327 | 73.46453 | 37051 ft | 446 kts | 6° |
| 2026-04-25 17:17 | 34.74342 | 73.47055 | 36920 ft | 445 kts | 8° |
| 2026-04-25 17:17 | 34.78280 | 73.48870 | 36589 ft | 463 kts | 20° |
| 2026-04-25 17:17 | 34.81060 | 73.50868 | 36341 ft | 465 kts | 28° |
| 2026-04-25 17:18 | 34.83636 | 73.53259 | 36141 ft | 466 kts | 31° |
| 2026-04-25 17:18 | 34.86233 | 73.55687 | 35885 ft | 474 kts | 30° |
| 2026-04-25 17:18 | 34.87991 | 73.57259 | 35713 ft | 473 kts | 30° |
| 2026-04-25 17:18 | 34.91500 | 73.60525 | 35430 ft | 474 kts | 32° |
| 2026-04-25 17:19 | 34.94084 | 73.63016 | 35186 ft | 471 kts | 32° |
| 2026-04-25 17:19 | 34.95789 | 73.64663 | 35022 ft | 471 kts | 32° |
| 2026-04-25 17:19 | 34.98372 | 73.67137 | 34823 ft | 475 kts | 32° |
| 2026-04-25 17:19 | 35.01832 | 73.70427 | 34517 ft | 475 kts | 32° |
| 2026-04-25 17:20 | 35.04436 | 73.72891 | 34275 ft | 473 kts | 32° |
| 2026-04-25 17:20 | 35.07036 | 73.75347 | 34007 ft | 473 kts | 32° |
| 2026-04-25 17:20 | 35.08771 | 73.76986 | 33826 ft | 474 kts | 32° |
| 2026-04-25 17:20 | 35.11409 | 73.79482 | 33555 ft | 474 kts | 32° |
| 2026-04-25 17:21 | 35.13984 | 73.81921 | 33293 ft | 473 kts | 32° |
| 2026-04-25 17:21 | 35.16584 | 73.84388 | 33039 ft | 473 kts | 32° |
| 2026-04-25 17:21 | 35.19161 | 73.86834 | 32782 ft | 467 kts | 32° |
| 2026-04-25 17:21 | 35.21726 | 73.89269 | 32530 ft | 466 kts | 32° |
| 2026-04-25 17:22 | 35.24296 | 73.91708 | 32269 ft | 469 kts | 33° |
| 2026-04-25 17:22 | 35.26003 | 73.93328 | 32112 ft | 469 kts | 33° |
| 2026-04-25 17:22 | 35.29447 | 73.96604 | 31775 ft | 468 kts | 33° |
| 2026-04-25 17:22 | 35.32020 | 73.99054 | 31528 ft | 470 kts | 33° |
| 2026-04-25 17:23 | 35.34605 | 74.01516 | 31284 ft | 470 kts | 34° |
| 2026-04-25 17:23 | 35.37195 | 74.03966 | 31022 ft | 469 kts | 33° |
| 2026-04-25 17:23 | 35.39699 | 74.06549 | 30778 ft | 474 kts | 41° |
| 2026-04-25 17:23 | 35.41856 | 74.09566 | 30547 ft | 475 kts | 50° |
| 2026-04-25 17:24 | 35.43646 | 74.12961 | 30317 ft | 476 kts | 59° |
| 2026-04-25 17:24 | 35.45157 | 74.16571 | 30068 ft | 474 kts | 60° |
| 2026-04-25 17:24 | 35.46661 | 74.20159 | 29784 ft | 472 kts | 60° |
| 2026-04-25 17:24 | 35.48169 | 74.23734 | 29514 ft | 469 kts | 60° |
| 2026-04-25 17:25 | 35.49665 | 74.27288 | 29243 ft | 468 kts | 60° |
| 2026-04-25 17:25 | 35.51153 | 74.30827 | 28974 ft | 465 kts | 60° |
| 2026-04-25 17:25 | 35.52625 | 74.34336 | 28702 ft | 463 kts | 60° |
| 2026-04-25 17:25 | 35.54106 | 74.37863 | 28449 ft | 462 kts | 61° |
| 2026-04-25 17:26 | 35.55575 | 74.41368 | 28190 ft | 461 kts | 61° |
| 2026-04-25 17:26 | 35.57037 | 74.44863 | 27931 ft | 459 kts | 61° |
| 2026-04-25 17:26 | 35.58490 | 74.48343 | 27678 ft | 457 kts | 61° |
| 2026-04-25 17:26 | 35.59938 | 74.51816 | 27430 ft | 455 kts | 61° |
| 2026-04-25 17:27 | 35.61361 | 74.55227 | 27186 ft | 453 kts | 61° |
| 2026-04-25 17:27 | 35.62813 | 74.58712 | 26906 ft | 450 kts | 61° |
| 2026-04-25 17:27 | 35.64251 | 74.62122 | 26354 ft | 450 kts | 60° |
| 2026-04-25 17:27 | 35.65253 | 74.64366 | 25820 ft | 453 kts | 59° |
| 2026-04-25 17:28 | 35.67307 | 74.68813 | 25062 ft | 448 kts | 58° |
| 2026-04-25 17:28 | 35.68821 | 74.72090 | 24855 ft | 434 kts | 59° |
| 2026-04-25 17:28 | 35.70174 | 74.75370 | 24796 ft | 431 kts | 69° |
| 2026-04-25 17:28 | 35.70891 | 74.78998 | 24826 ft | 441 kts | 83° |
| 2026-04-25 17:29 | 35.70881 | 74.82770 | 24826 ft | 440 kts | 97° |
| 2026-04-25 17:29 | 35.70187 | 74.86424 | 24827 ft | 440 kts | 108° |
| 2026-04-25 17:29 | 35.69183 | 74.89976 | 24824 ft | 440 kts | 110° |
| 2026-04-25 17:29 | 35.68151 | 74.93532 | 24822 ft | 441 kts | 109° |
| 2026-04-25 17:30 | 35.67175 | 74.97097 | 24818 ft | 440 kts | 108° |
| 2026-04-25 17:30 | 35.66251 | 75.00685 | 24825 ft | 440 kts | 107° |
| 2026-04-25 17:30 | 35.65359 | 75.04283 | 24821 ft | 441 kts | 107° |
| 2026-04-25 17:30 | 35.64481 | 75.07894 | 24835 ft | 438 kts | 107° |
| 2026-04-25 17:31 | 35.63614 | 75.11472 | 24840 ft | 437 kts | 107° |
| 2026-04-25 17:31 | 35.62745 | 75.15055 | 24839 ft | 438 kts | 107° |
| 2026-04-25 17:31 | 35.61874 | 75.18638 | 24836 ft | 437 kts | 107° |
| 2026-04-25 17:31 | 35.60999 | 75.22230 | 24842 ft | 438 kts | 107° |
| 2026-04-25 17:32 | 35.60125 | 75.25808 | 24842 ft | 437 kts | 107° |